EmailTwitter


Observations de surface / Québec / LFLC

Régions: Québec | Canada | États-Unis | Europe | France | UK | Ailleurs
Station
Affichage
Infos & localisation pour LFLC | Aide pour décoder les METARs

Observations prises le 2017-09-21 à 10H30 UTC à CLERMONT/AULNAT, FR (LFLC)

Température: 18.0 Celsius

Point de rosée: 7.0 Celsius

Humidité relative: 49%

Vents: Sud-est à 7 km/h ou 4 noeuds.

Pression au niveau moyen de la mer: 101.90 kilopascals.

Observation METAR:

LFLC 211030Z AUTO 12004KT 070V180 CAVOK 18/07 Q1019 NOSIG=